sensor_id;sensor_type;location;lat;lon;timestamp;pressure;altitude;pressure_sealevel;temperature;humidity
73896;BME280;73986;50.770;6.080;2023-11-21T00:06:41;98943.75;;;7.90;72.53
73896;BME280;73986;50.770;6.080;2023-11-21T00:16:47;98961.38;;;7.88;72.26
73896;BME280;73986;50.770;6.080;2023-11-21T00:26:50;98961.56;;;7.73;72.67
73896;BME280;73986;50.770;6.080;2023-11-21T00:36:51;98967.13;;;7.69;72.70
73896;BME280;73986;50.770;6.080;2023-11-21T00:46:55;98978.78;;;7.53;72.90
73896;BME280;73986;50.770;6.080;2023-11-21T00:56:56;98986.72;;;7.51;72.95
73896;BME280;73986;50.770;6.080;2023-11-21T01:06:59;98994.53;;;7.40;73.17
73896;BME280;73986;50.770;6.080;2023-11-21T01:17:01;99006.06;;;7.37;73.11
73896;BME280;73986;50.770;6.080;2023-11-21T01:27:06;99007.84;;;7.37;73.23
73896;BME280;73986;50.770;6.080;2023-11-21T01:37:09;99006.97;;;7.49;72.84
73896;BME280;73986;50.770;6.080;2023-11-21T01:47:13;99021.94;;;7.47;72.97
73896;BME280;73986;50.770;6.080;2023-11-21T01:57:15;99011.97;;;7.52;72.93
73896;BME280;73986;50.770;6.080;2023-11-21T02:07:18;99030.97;;;7.68;72.96
73896;BME280;73986;50.770;6.080;2023-11-21T02:17:20;99027.25;;;7.70;72.84
73896;BME280;73986;50.770;6.080;2023-11-21T02:27:24;99040.97;;;7.74;72.84
73896;BME280;73986;50.770;6.080;2023-11-21T02:37:28;99039.53;;;7.70;72.89
73896;BME280;73986;50.770;6.080;2023-11-21T02:47:31;99051.03;;;7.80;72.79
73896;BME280;73986;50.770;6.080;2023-11-21T02:57:32;99055.03;;;7.73;72.98
73896;BME280;73986;50.770;6.080;2023-11-21T03:07:36;99054.13;;;7.61;72.99
73896;BME280;73986;50.770;6.080;2023-11-21T03:17:38;99059.53;;;7.71;72.91
73896;BME280;73986;50.770;6.080;2023-11-21T03:27:42;99065.56;;;7.84;72.99
73896;BME280;73986;50.770;6.080;2023-11-21T03:37:44;99084.38;;;7.89;72.88
73896;BME280;73986;50.770;6.080;2023-11-21T03:47:47;99105.84;;;7.95;72.92
73896;BME280;73986;50.770;6.080;2023-11-21T03:57:49;99107.19;;;8.00;72.84
73896;BME280;73986;50.770;6.080;2023-11-21T04:07:52;99111.13;;;8.06;72.67
73896;BME280;73986;50.770;6.080;2023-11-21T04:17:54;99120.41;;;7.99;73.04
73896;BME280;73986;50.770;6.080;2023-11-21T04:27:58;99117.06;;;7.97;72.89
73896;BME280;73986;50.770;6.080;2023-11-21T04:37:59;99132.44;;;8.01;73.13
73896;BME280;73986;50.770;6.080;2023-11-21T04:48:03;99134.25;;;8.01;72.84
73896;BME280;73986;50.770;6.080;2023-11-21T04:58:04;99142.59;;;8.06;73.21
73896;BME280;73986;50.770;6.080;2023-11-21T05:08:07;99151.28;;;8.07;73.01
73896;BME280;73986;50.770;6.080;2023-11-21T05:18:09;99162.72;;;8.06;73.06
73896;BME280;73986;50.770;6.080;2023-11-21T05:28:13;99159.88;;;8.09;72.91
73896;BME280;73986;50.770;6.080;2023-11-21T05:38:14;99175.88;;;8.17;72.92
73896;BME280;73986;50.770;6.080;2023-11-21T05:48:17;99191.97;;;7.99;73.28
73896;BME280;73986;50.770;6.080;2023-11-21T05:58:19;99206.31;;;8.07;73.11
73896;BME280;73986;50.770;6.080;2023-11-21T06:08:22;99225.28;;;8.10;73.06
73896;BME280;73986;50.770;6.080;2023-11-21T06:18:25;99243.69;;;7.97;73.25
73896;BME280;73986;50.770;6.080;2023-11-21T06:28:28;99251.41;;;8.12;73.22
73896;BME280;73986;50.770;6.080;2023-11-21T06:38:29;99257.47;;;8.12;73.04
73896;BME280;73986;50.770;6.080;2023-11-21T06:48:33;99271.22;;;8.16;73.24
73896;BME280;73986;50.770;6.080;2023-11-21T06:58:35;99268.91;;;8.11;73.22
73896;BME280;73986;50.770;6.080;2023-11-21T07:08:38;99293.00;;;8.17;73.20
73896;BME280;73986;50.770;6.080;2023-11-21T07:18:40;99307.75;;;8.31;73.03
73896;BME280;73986;50.770;6.080;2023-11-21T07:28:43;99315.16;;;8.50;72.68
73896;BME280;73986;50.770;6.080;2023-11-21T07:38:44;99330.78;;;8.51;73.01
73896;BME280;73986;50.770;6.080;2023-11-21T07:48:47;99353.25;;;8.56;72.86
73896;BME280;73986;50.770;6.080;2023-11-21T07:58:49;99357.97;;;8.50;73.08
73896;BME280;73986;50.770;6.080;2023-11-21T08:08:52;99371.63;;;8.56;73.58
73896;BME280;73986;50.770;6.080;2023-11-21T08:18:54;99385.59;;;8.81;73.07
73896;BME280;73986;50.770;6.080;2023-11-21T08:28:57;99397.41;;;9.35;72.65
73896;BME280;73986;50.770;6.080;2023-11-21T08:38:58;99408.94;;;9.33;72.86
73896;BME280;73986;50.770;6.080;2023-11-21T08:49:02;99421.44;;;9.54;72.89
73896;BME280;73986;50.770;6.080;2023-11-21T08:59:04;99424.63;;;9.82;72.51
73896;BME280;73986;50.770;6.080;2023-11-21T09:09:07;99438.78;;;10.15;72.15
73896;BME280;73986;50.770;6.080;2023-11-21T09:19:10;99456.28;;;10.62;71.71
73896;BME280;73986;50.770;6.080;2023-11-21T09:29:13;99457.84;;;10.53;72.18
73896;BME280;73986;50.770;6.080;2023-11-21T09:39:15;99468.66;;;10.37;72.54
73896;BME280;73986;50.770;6.080;2023-11-21T09:59:22;99477.66;;;10.34;72.56
73896;BME280;73986;50.770;6.080;2023-11-21T10:09:24;99483.09;;;10.56;72.20
73896;BME280;73986;50.770;6.080;2023-11-21T10:19:29;99488.78;;;11.07;71.05
73896;BME280;73986;50.770;6.080;2023-11-21T10:29:33;99503.84;;;11.82;69.61
73896;BME280;73986;50.770;6.080;2023-11-21T10:39:38;99506.47;;;12.03;69.54
73896;BME280;73986;50.770;6.080;2023-11-21T10:49:40;99514.69;;;11.67;71.19
73896;BME280;73986;50.770;6.080;2023-11-21T10:59:46;99502.88;;;11.50;71.40
73896;BME280;73986;50.770;6.080;2023-11-21T11:09:49;99513.88;;;11.88;70.12
73896;BME280;73986;50.770;6.080;2023-11-21T11:19:52;99515.47;;;11.47;71.01
73896;BME280;73986;50.770;6.080;2023-11-21T11:30:02;99525.78;;;11.50;71.28
73896;BME280;73986;50.770;6.080;2023-11-21T11:40:11;99527.88;;;11.67;70.91
73896;BME280;73986;50.770;6.080;2023-11-21T11:50:13;99533.63;;;11.28;70.91
73896;BME280;73986;50.770;6.080;2023-11-21T12:00:19;99532.06;;;11.70;70.27
73896;BME280;73986;50.770;6.080;2023-11-21T12:10:26;99528.78;;;11.78;69.88
73896;BME280;73986;50.770;6.080;2023-11-21T12:20:30;99539.00;;;12.25;68.52
73896;BME280;73986;50.770;6.080;2023-11-21T12:30:34;99541.97;;;12.11;69.10
73896;BME280;73986;50.770;6.080;2023-11-21T12:40:39;99552.03;;;12.06;69.73
73896;BME280;73986;50.770;6.080;2023-11-21T12:50:41;99582.06;;;11.49;70.52
73896;BME280;73986;50.770;6.080;2023-11-21T13:00:45;99590.78;;;10.93;71.40
73896;BME280;73986;50.770;6.080;2023-11-21T13:10:49;99587.34;;;10.45;71.84
73896;BME280;73986;50.770;6.080;2023-11-21T13:20:54;99613.03;;;10.42;71.83
73896;BME280;73986;50.770;6.080;2023-11-21T13:30:56;99617.91;;;10.35;71.52
73896;BME280;73986;50.770;6.080;2023-11-21T13:41:04;99620.06;;;10.66;70.42
73896;BME280;73986;50.770;6.080;2023-11-21T13:51:09;99626.41;;;10.75;70.17
73896;BME280;73986;50.770;6.080;2023-11-21T14:01:18;99629.13;;;10.73;70.80
73896;BME280;73986;50.770;6.080;2023-11-21T14:11:45;99655.47;;;10.73;70.66
73896;BME280;73986;50.770;6.080;2023-11-21T14:21:48;99651.94;;;10.25;71.45
73896;BME280;73986;50.770;6.080;2023-11-21T14:31:49;99646.66;;;10.25;71.22
73896;BME280;73986;50.770;6.080;2023-11-21T14:41:55;99660.59;;;10.03;71.01
73896;BME280;73986;50.770;6.080;2023-11-21T14:51:58;99677.88;;;9.94;71.15
73896;BME280;73986;50.770;6.080;2023-11-21T15:02:05;99691.19;;;10.04;70.91
73896;BME280;73986;50.770;6.080;2023-11-21T15:12:16;99709.81;;;10.01;70.89
73896;BME280;73986;50.770;6.080;2023-11-21T15:22:22;99733.00;;;9.69;71.18
73896;BME280;73986;50.770;6.080;2023-11-21T15:32:23;99739.84;;;9.72;71.33
73896;BME280;73986;50.770;6.080;2023-11-21T15:42:27;99740.38;;;9.64;71.45
73896;BME280;73986;50.770;6.080;2023-11-21T15:52:29;99758.78;;;9.77;71.08
73896;BME280;73986;50.770;6.080;2023-11-21T16:02:32;99766.25;;;9.57;71.42
73896;BME280;73986;50.770;6.080;2023-11-21T16:12:33;99795.56;;;9.51;71.52
73896;BME280;73986;50.770;6.080;2023-11-21T16:22:36;99803.56;;;9.49;71.53
73896;BME280;73986;50.770;6.080;2023-11-21T16:32:39;99810.50;;;9.51;71.41
73896;BME280;73986;50.770;6.080;2023-11-21T16:42:42;99829.94;;;9.61;71.56
73896;BME280;73986;50.770;6.080;2023-11-21T16:52:44;99839.38;;;9.51;71.71
73896;BME280;73986;50.770;6.080;2023-11-21T17:02:47;99864.81;;;9.50;71.82
73896;BME280;73986;50.770;6.080;2023-11-21T17:23:00;99893.06;;;9.33;72.06
73896;BME280;73986;50.770;6.080;2023-11-21T17:33:04;99909.91;;;9.16;72.41
73896;BME280;73986;50.770;6.080;2023-11-21T17:43:08;99928.56;;;8.98;72.84
73896;BME280;73986;50.770;6.080;2023-11-21T17:53:11;99953.50;;;8.91;73.15
73896;BME280;73986;50.770;6.080;2023-11-21T18:03:13;99962.81;;;8.82;73.04
73896;BME280;73986;50.770;6.080;2023-11-21T18:13:15;99972.28;;;8.70;73.11
73896;BME280;73986;50.770;6.080;2023-11-21T18:23:19;100009.59;;;8.75;72.99
73896;BME280;73986;50.770;6.080;2023-11-21T18:33:21;100017.75;;;8.71;72.49
73896;BME280;73986;50.770;6.080;2023-11-21T18:43:24;100033.53;;;8.55;72.80
73896;BME280;73986;50.770;6.080;2023-11-21T18:53:26;100036.25;;;8.53;72.74
73896;BME280;73986;50.770;6.080;2023-11-21T19:03:30;100058.63;;;8.30;72.82
73896;BME280;73986;50.770;6.080;2023-11-21T19:13:32;100070.03;;;8.28;72.91
73896;BME280;73986;50.770;6.080;2023-11-21T19:23:35;100104.84;;;8.16;72.84
73896;BME280;73986;50.770;6.080;2023-11-21T19:33:37;100118.53;;;7.74;73.39
73896;BME280;73986;50.770;6.080;2023-11-21T19:43:41;100132.13;;;7.33;73.53
73896;BME280;73986;50.770;6.080;2023-11-21T19:53:44;100153.91;;;7.17;73.68
73896;BME280;73986;50.770;6.080;2023-11-21T20:03:46;100171.66;;;6.94;73.68
73896;BME280;73986;50.770;6.080;2023-11-21T20:13:48;100185.97;;;6.87;73.16
73896;BME280;73986;50.770;6.080;2023-11-21T20:23:52;100208.59;;;6.70;73.04
73896;BME280;73986;50.770;6.080;2023-11-21T20:33:53;100214.97;;;6.64;72.90
73896;BME280;73986;50.770;6.080;2023-11-21T20:43:56;100231.13;;;6.55;72.64
73896;BME280;73986;50.770;6.080;2023-11-21T20:54:01;100235.03;;;6.46;72.87
73896;BME280;73986;50.770;6.080;2023-11-21T21:04:06;100241.47;;;6.39;72.40
73896;BME280;73986;50.770;6.080;2023-11-21T21:14:08;100252.09;;;6.36;72.14
73896;BME280;73986;50.770;6.080;2023-11-21T21:24:13;100251.75;;;6.43;72.25
73896;BME280;73986;50.770;6.080;2023-11-21T21:34:14;100258.53;;;6.28;72.49
73896;BME280;73986;50.770;6.080;2023-11-21T21:44:20;100293.28;;;6.30;71.80
73896;BME280;73986;50.770;6.080;2023-11-21T21:54:22;100297.88;;;6.25;71.63
73896;BME280;73986;50.770;6.080;2023-11-21T22:04:28;100319.78;;;6.23;72.36
73896;BME280;73986;50.770;6.080;2023-11-21T22:14:34;100338.56;;;6.12;72.28
73896;BME280;73986;50.770;6.080;2023-11-21T22:24:52;100344.97;;;6.04;72.16
73896;BME280;73986;50.770;6.080;2023-11-21T22:34:58;100363.31;;;6.24;72.11
73896;BME280;73986;50.770;6.080;2023-11-21T23:06:57;100408.59;;;6.24;72.13
73896;BME280;73986;50.770;6.080;2023-11-21T23:17:05;100409.38;;;6.26;72.13
73896;BME280;73986;50.770;6.080;2023-11-21T23:27:08;100406.63;;;6.29;72.08
73896;BME280;73986;50.770;6.080;2023-11-21T23:37:12;100407.16;;;6.17;72.20
73896;BME280;73986;50.770;6.080;2023-11-21T23:47:18;100409.41;;;6.05;72.61
73896;BME280;73986;50.770;6.080;2023-11-21T23:57:27;100411.69;;;6.13;72.12
